Time;durP1;ratioP1;P1;durP2;ratioP2;P2;SDS_P1;SDS_P2;PMS_P1;PMS_P2;Temp;Humidity;BMP_temperature;BMP_pressure;BME280_temperature;BME280_humidity;BME280_pressure;Samples;Min_cycle;Max_cycle;Signal;HPM_P1;HPM_P2
2022/01/08 00:02:19;;;;;;;28.67;14.60;;;;;;;5.39;89.79;100039.16;5053983;28;20033;-39
2022/01/08 00:04:44;;;;;;;28.10;15.05;;;;;;;6.28;87.29;100027.94;5053824;28;20021;-39
2022/01/08 00:07:10;;;;;;;24.35;13.20;;;;;;;5.76;86.05;100032.56;5053504;28;20052;-39
2022/01/08 00:09:35;;;;;;;25.63;14.05;;;;;;;5.56;87.37;100031.22;5053600;28;20082;-39
2022/01/08 00:12:01;;;;;;;27.17;14.55;;;;;;;5.57;86.03;100028.44;5053515;28;20017;-39
2022/01/08 00:14:28;;;;;;;25.35;13.65;;;;;;;5.54;87.93;100035.84;5053599;28;20025;-39
2022/01/08 00:16:53;;;;;;;24.15;13.13;;;;;;;5.34;87.74;100030.06;5053271;28;20021;-39
2022/01/08 00:19:19;;;;;;;26.45;14.25;;;;;;;5.23;88.05;100033.84;5053917;28;20079;-39
2022/01/08 00:21:44;;;;;;;25.08;13.98;;;;;;;5.23;87.92;100031.19;5054053;28;20392;-39
2022/01/08 00:24:10;;;;;;;25.80;14.27;;;;;;;5.40;87.67;100035.50;5053627;28;20036;-39
2022/01/08 00:26:35;;;;;;;26.45;13.90;;;;;;;5.33;88.36;100031.91;5053864;28;20017;-39
2022/01/08 00:29:00;;;;;;;25.75;14.18;;;;;;;5.31;87.63;100030.38;5053846;28;20048;-39
2022/01/08 00:31:26;;;;;;;26.77;13.90;;;;;;;5.33;88.32;100028.41;5053844;28;20021;-38
2022/01/08 00:33:54;;;;;;;28.25;14.75;;;;;;;5.36;89.23;100021.00;5053831;28;20032;-39
2022/01/08 00:36:20;;;;;;;31.50;15.38;;;;;;;5.65;86.61;100011.78;5053883;28;20553;-39
2022/01/08 00:38:45;;;;;;;26.27;14.90;;;;;;;5.57;87.05;100006.50;5053358;28;20025;-40
2022/01/08 00:41:10;;;;;;;28.52;14.30;;;;;;;5.41;87.65;100008.13;5053561;28;20465;-40
2022/01/08 00:43:36;;;;;;;28.50;13.13;;;;;;;5.30;88.57;100005.81;5053713;28;20405;-40
2022/01/08 00:46:02;;;;;;;27.38;13.65;;;;;;;5.20;88.65;100013.06;5053577;28;20082;-39
2022/01/08 00:48:27;;;;;;;27.75;14.82;;;;;;;5.44;89.57;100005.16;5052318;28;20202;-40
2022/01/08 00:50:53;;;;;;;32.33;15.18;;;;;;;6.45;85.94;99998.66;5052323;28;20435;-40
2022/01/08 00:53:21;;;;;;;25.70;13.80;;;;;;;5.98;85.25;100001.25;5053315;28;20013;-39
2022/01/08 00:55:47;;;;;;;22.83;12.90;;;;;;;5.79;85.70;99992.63;5053264;28;20027;-40
2022/01/08 00:58:12;;;;;;;18.58;10.70;;;;;;;5.90;85.21;99994.09;5053010;28;20028;-39
2022/01/08 01:00:38;;;;;;;18.50;9.48;;;;;;;5.79;84.74;100005.84;5053267;28;20032;-40
2022/01/08 01:03:03;;;;;;;17.63;9.82;;;;;;;5.43;86.44;100000.88;5052018;28;20366;-40
2022/01/08 01:05:29;;;;;;;17.17;9.15;;;;;;;5.33;87.52;99997.59;5053356;28;20045;-39
2022/01/08 01:07:54;;;;;;;15.40;8.88;;;;;;;5.45;87.29;99998.91;5051542;28;20489;-39
2022/01/08 01:10:20;;;;;;;12.98;7.80;;;;;;;5.31;87.46;99999.53;5052994;28;20124;-39
2022/01/08 01:12:45;;;;;;;18.08;9.07;;;;;;;5.88;86.59;99983.72;5053210;28;20033;-39
2022/01/08 01:15:12;;;;;;;15.93;8.98;;;;;;;6.32;84.81;99984.31;5052855;28;20036;-53
2022/01/08 01:17:38;;;;;;;22.17;11.45;;;;;;;5.86;85.08;99991.00;5052945;28;20060;-51
2022/01/08 01:20:05;;;;;;;26.60;14.80;;;;;;;5.77;84.95;99977.94;5053105;28;20048;-52
2022/01/08 01:22:41;;;;;;;18.83;11.25;;;;;;;5.58;84.88;99979.09;5052924;28;20032;-50
2022/01/08 01:25:09;;;;;;;20.55;11.65;;;;;;;5.61;86.06;99971.66;5052825;28;20041;-51
2022/01/08 01:30:11;;;;;;;14.52;8.77;;;;;;;5.46;86.29;99971.53;5052653;28;20060;-52
2022/01/08 01:48:47;;;;;;;17.85;9.73;;;;;;;5.72;85.38;99928.25;5052707;28;20056;-50
2022/01/08 01:51:18;;;;;;;15.40;9.38;;;;;;;5.40;87.09;99929.94;5051472;28;20408;-50
2022/01/08 01:53:44;;;;;;;16.45;9.40;;;;;;;5.27;88.36;99927.81;5050907;28;20199;-53
2022/01/08 01:56:09;;;;;;;17.08;9.35;;;;;;;5.34;88.05;99929.78;5052115;28;20032;-54
2022/01/08 01:58:34;;;;;;;19.73;10.57;;;;;;;5.19;88.03;99934.88;5052226;28;20044;-53
2022/01/08 02:01:01;;;;;;;19.65;10.63;;;;;;;5.24;87.74;99943.13;5052137;28;20032;-52
2022/01/08 02:03:26;;;;;;;21.67;11.45;;;;;;;5.31;88.94;99948.56;5052262;28;20104;-52
2022/01/08 02:05:52;;;;;;;21.15;11.38;;;;;;;5.25;89.04;99942.97;5051716;28;20063;-54
2022/01/08 02:08:17;;;;;;;20.77;11.30;;;;;;;5.42;89.87;99935.06;5052272;28;20033;-53
2022/01/08 02:10:43;;;;;;;24.35;12.80;;;;;;;6.28;88.22;99930.94;5051981;28;20033;-53
2022/01/08 02:13:08;;;;;;;21.83;12.50;;;;;;;5.86;86.27;99924.97;5051963;28;20021;-53
2022/01/08 02:15:35;;;;;;;23.75;12.13;;;;;;;5.88;85.62;99917.69;5052099;28;20110;-52
2022/01/08 02:18:00;;;;;;;21.15;12.70;;;;;;;5.57;87.46;99912.28;5051809;28;20353;-53
2022/01/08 02:20:26;;;;;;;21.95;11.18;;;;;;;5.47;86.74;99915.09;5051660;28;20495;-53
2022/01/08 02:22:51;;;;;;;18.63;11.45;;;;;;;5.29;88.05;99904.72;5051737;28;20482;-53
2022/01/08 02:25:21;;;;;;;22.05;11.07;;;;;;;5.20;88.84;99910.16;5051347;28;20110;-51
2022/01/08 02:27:47;;;;;;;19.55;11.15;;;;;;;5.21;89.98;99902.06;5051766;28;20021;-52
2022/01/08 02:30:12;;;;;;;23.33;11.70;;;;;;;5.24;90.04;99895.66;5051743;28;20048;-53
2022/01/08 02:32:41;;;;;;;19.00;11.35;;;;;;;5.32;89.22;99893.00;5051627;28;20036;-51
2022/01/08 02:35:06;;;;;;;26.50;14.70;;;;;;;6.38;87.19;99893.78;5051623;28;20033;-54
2022/01/08 02:37:34;;;;;;;26.92;13.98;;;;;;;6.05;86.29;99878.88;5051524;28;20366;-51
2022/01/08 02:40:01;;;;;;;25.98;14.23;;;;;;;5.83;86.65;99890.94;5051374;28;20102;-53
2022/01/08 02:42:36;;;;;;;25.02;14.30;;;;;;;5.58;86.88;99884.03;5051342;28;20025;-54
2022/01/08 02:45:02;;;;;;;28.48;15.05;;;;;;;5.62;87.04;99880.09;5050241;28;20035;-53
2022/01/08 02:47:27;;;;;;;28.77;14.63;;;;;;;5.48;87.11;99884.22;5050955;28;20021;-53
2022/01/08 02:49:53;;;;;;;26.23;14.40;;;;;;;5.30;88.11;99881.78;5051374;28;20386;-54
2022/01/08 02:52:19;;;;;;;26.65;15.15;;;;;;;5.45;88.94;99877.47;5051484;28;20066;-53
2022/01/08 02:54:44;;;;;;;33.13;17.80;;;;;;;6.43;85.96;99879.00;5050971;28;20370;-52
2022/01/08 02:57:10;;;;;;;30.65;15.38;;;;;;;6.30;84.78;99877.94;5051207;28;20025;-51
2022/01/08 02:59:35;;;;;;;28.58;15.27;;;;;;;5.67;86.34;99880.41;5051177;28;20025;-52
2022/01/08 03:02:01;;;;;;;27.77;15.35;;;;;;;5.57;85.38;99871.84;5050973;28;20029;-52
2022/01/08 03:04:26;;;;;;;28.83;14.93;;;;;;;5.37;87.65;99866.94;5051358;28;20035;-52
2022/01/08 03:06:52;;;;;;;28.80;15.40;;;;;;;5.37;88.94;99874.00;5050898;28;20413;-54
2022/01/08 03:09:17;;;;;;;33.65;17.20;;;;;;;6.48;86.43;99870.56;5051331;28;20024;-52
2022/01/08 03:11:43;;;;;;;28.58;14.73;;;;;;;6.13;84.98;99872.72;5051147;28;20029;-51
2022/01/08 03:14:08;;;;;;;28.75;14.57;;;;;;;5.89;85.52;99865.66;5050920;28;20036;-51
2022/01/08 03:16:34;;;;;;;30.88;16.30;;;;;;;5.61;86.77;99866.06;5050943;28;20083;-51
2022/01/08 03:19:08;;;;;;;28.75;15.55;;;;;;;5.39;87.55;99867.59;5050769;28;20145;-52
2022/01/08 03:21:35;;;;;;;30.83;16.00;;;;;;;5.62;87.63;99864.25;5050771;28;20039;-51
2022/01/08 03:24:02;;;;;;;28.52;15.63;;;;;;;5.51;87.42;99869.91;5051172;28;20028;-52
2022/01/08 03:26:28;;;;;;;33.05;15.88;;;;;;;5.40;88.71;99866.59;5050756;28;20164;-50
2022/01/08 03:28:53;;;;;;;30.98;15.77;;;;;;;5.36;88.11;99870.56;5050935;28;20118;-51
2022/01/08 03:31:19;;;;;;;33.70;17.55;;;;;;;5.70;89.81;99869.53;5050907;28;20033;-51
2022/01/08 03:33:45;;;;;;;37.28;17.83;;;;;;;6.71;85.97;99864.50;5050666;28;20067;-52
2022/01/08 03:36:10;;;;;;;26.58;14.60;;;;;;;6.00;85.03;99867.16;5050776;28;20415;-53
2022/01/08 03:38:36;;;;;;;27.15;13.85;;;;;;;5.62;86.04;99865.09;5050763;28;20057;-52
2022/01/08 03:41:01;;;;;;;25.08;13.65;;;;;;;5.49;86.50;99865.59;5050458;28;20029;-51
2022/01/08 03:43:27;;;;;;;26.85;13.70;;;;;;;5.52;86.94;99868.88;5050775;28;20029;-51
2022/01/08 03:45:52;;;;;;;27.73;14.45;;;;;;;5.45;87.89;99864.28;5050572;28;20035;-52
2022/01/08 03:48:42;;;;;;;27.92;15.43;;;;;;;6.00;88.10;99864.53;5050648;28;20075;-50
2022/01/08 03:51:08;;;;;;;28.27;14.80;;;;;;;6.28;85.98;99859.59;5050381;28;20640;-53
2022/01/08 03:53:33;;;;;;;26.30;13.80;;;;;;;5.91;86.76;99860.22;5050477;28;20037;-50
2022/01/08 03:55:59;;;;;;;26.60;13.85;;;;;;;5.58;85.89;99852.38;5050570;28;20032;-52
2022/01/08 03:58:25;;;;;;;23.70;13.23;;;;;;;5.44;88.24;99844.16;5050194;28;20079;-52
2022/01/08 04:00:51;;;;;;;27.27;14.07;;;;;;;5.38;87.78;99849.28;5050019;28;20037;-51
2022/01/08 04:03:18;;;;;;;26.83;14.43;;;;;;;5.44;88.29;99853.88;5050403;28;20029;-52
2022/01/08 04:05:46;;;;;;;27.73;14.40;;;;;;;5.49;87.73;99841.84;5049817;28;20640;-51
2022/01/08 04:08:11;;;;;;;28.20;13.63;;;;;;;5.38;87.68;99844.81;5050323;28;20037;-51
2022/01/08 04:10:37;;;;;;;25.30;13.18;;;;;;;5.22;88.52;99845.66;5050205;28;20025;-52
2022/01/08 04:13:09;;;;;;;25.20;13.10;;;;;;;5.28;88.78;99845.00;5050171;28;20032;-50
2022/01/08 04:15:38;;;;;;;30.05;14.18;;;;;;;5.28;88.90;99842.38;5053737;28;20044;-51
2022/01/08 04:18:03;;;;;;;30.38;15.40;;;;;;;5.87;88.95;99846.53;5053633;28;20024;-52
2022/01/08 04:20:29;;;;;;;26.45;13.80;;;;;;;6.25;87.00;99852.84;5053496;28;20017;-53
2022/01/08 04:22:55;;;;;;;28.05;13.52;;;;;;;5.72;86.63;99843.75;5053642;28;20032;-51
2022/01/08 04:25:21;;;;;;;24.75;13.32;;;;;;;5.49;87.66;99849.75;5053842;28;20468;-50
2022/01/08 04:27:47;;;;;;;26.30;13.68;;;;;;;5.45;87.42;99840.53;5053684;28;20025;-50
2022/01/08 04:30:12;;;;;;;28.80;14.00;;;;;;;5.26;88.94;99848.81;5053929;28;20040;-52
2022/01/08 04:32:39;;;;;;;27.45;14.15;;;;;;;5.28;88.35;99846.81;5053921;28;20033;-52
2022/01/08 04:35:05;;;;;;;28.13;13.70;;;;;;;5.29;88.70;99844.03;5053657;28;20027;-51
2022/01/08 04:37:30;;;;;;;28.13;14.68;;;;;;;5.16;88.86;99841.06;5053493;28;20029;-51
2022/01/08 04:39:56;;;;;;;29.58;14.82;;;;;;;5.35;89.15;99847.81;5053411;28;20028;-53
2022/01/08 04:42:21;;;;;;;31.23;16.10;;;;;;;6.38;86.84;99854.13;5053396;28;20588;-51
2022/01/08 04:44:47;;;;;;;31.48;15.27;;;;;;;6.09;86.38;99852.91;5053543;28;20051;-49
2022/01/08 04:47:13;;;;;;;27.10;13.82;;;;;;;5.81;87.11;99849.84;5053114;28;20037;-51
2022/01/08 04:49:38;;;;;;;29.17;14.85;;;;;;;5.53;87.10;99850.25;5053193;28;20039;-50
2022/01/08 04:52:04;;;;;;;27.55;14.55;;;;;;;5.35;87.14;99845.16;5053302;28;20150;-50
2022/01/08 04:54:30;;;;;;;27.90;14.68;;;;;;;5.51;87.97;99846.13;5053022;28;20458;-51
2022/01/08 04:56:55;;;;;;;28.75;14.93;;;;;;;5.40;88.32;99845.47;5053051;28;20025;-53
2022/01/08 04:59:20;;;;;;;37.60;17.75;;;;;;;6.32;87.01;99841.56;5053360;28;20028;-52
2022/01/08 05:01:46;;;;;;;28.92;15.98;;;;;;;6.22;86.10;99850.53;5052929;28;20021;-51
2022/01/08 05:04:11;;;;;;;34.25;15.50;;;;;;;5.77;86.79;99837.97;5053331;28;20039;-51
2022/01/08 05:06:37;;;;;;;32.67;15.43;;;;;;;5.49;86.51;99841.84;5052780;28;20114;-51
2022/01/08 05:09:03;;;;;;;29.70;15.32;;;;;;;5.36;87.43;99836.25;5052989;28;20029;-51
2022/01/08 05:11:28;;;;;;;31.42;16.42;;;;;;;5.50;87.58;99832.09;5053028;28;20025;-50
2022/01/08 05:13:54;;;;;;;30.15;16.05;;;;;;;5.38;87.78;99828.97;5053152;28;20366;-49
2022/01/08 05:16:21;;;;;;;33.70;16.25;;;;;;;5.39;88.15;99827.19;5053106;28;20017;-50
2022/01/08 05:18:49;;;;;;;31.10;17.10;;;;;;;5.49;87.56;99827.81;5053004;28;20028;-53
2022/01/08 05:23:40;;;;;;;42.80;19.17;;;;;;;6.40;87.36;99823.03;5052793;28;20444;-53
2022/01/08 05:26:05;;;;;;;33.70;16.58;;;;;;;5.99;85.98;99817.94;5052592;28;20094;-51
2022/01/08 05:28:31;;;;;;;34.63;17.90;;;;;;;5.71;86.62;99823.63;5052796;28;20024;-52
2022/01/08 05:30:56;;;;;;;32.10;15.80;;;;;;;5.61;87.78;99820.38;5052976;28;20353;-51
2022/01/08 05:33:21;;;;;;;57.92;30.52;;;;;;;5.62;87.44;99817.56;5052905;28;20463;-51
2022/01/08 05:35:47;;;;;;;47.13;22.80;;;;;;;5.42;88.08;99824.19;5052380;28;20017;-50
2022/01/08 05:38:13;;;;;;;87.20;39.85;;;;;;;5.83;88.76;99813.53;5052658;28;20092;-53
2022/01/08 05:40:38;;;;;;;53.38;24.75;;;;;;;6.20;87.52;99814.72;5052426;28;20031;-53
2022/01/08 05:43:03;;;;;;;31.83;16.38;;;;;;;6.00;85.90;99814.34;5052051;28;20024;-53
2022/01/08 05:45:29;;;;;;;32.20;16.60;;;;;;;5.96;84.90;99819.13;5051881;28;20021;-50
2022/01/08 05:47:54;;;;;;;30.67;15.48;;;;;;;5.58;86.40;99812.75;5051709;28;20083;-51
2022/01/08 05:50:20;;;;;;;29.75;15.27;;;;;;;5.37;87.78;99827.34;5051872;28;20013;-50
2022/01/08 05:52:45;;;;;;;31.48;16.48;;;;;;;5.33;88.86;99828.69;5051803;28;20078;-51
2022/01/08 05:55:11;;;;;;;30.50;15.60;;;;;;;5.58;87.26;99825.97;5051994;28;20123;-50
2022/01/08 05:57:36;;;;;;;31.17;15.02;;;;;;;5.41;87.28;99833.94;5051823;28;20488;-52
2022/01/08 06:00:04;;;;;;;31.40;15.48;;;;;;;5.44;87.82;99836.22;5051671;28;20079;-51
2022/01/08 06:02:29;;;;;;;30.33;15.95;;;;;;;5.55;89.50;99831.59;5051375;28;20021;-52
2022/01/08 06:04:54;;;;;;;44.47;22.10;;;;;;;6.22;88.52;99831.22;5051449;28;20025;-50
2022/01/08 06:07:20;;;;;;;175.27;92.53;;;;;;;5.91;86.14;99837.28;5050997;28;20041;-50
2022/01/08 06:09:45;;;;;;;80.53;40.15;;;;;;;5.76;86.71;99836.34;5051323;28;20021;-54
2022/01/08 06:12:11;;;;;;;102.38;49.83;;;;;;;5.68;87.50;99842.47;5051654;28;20075;-50
2022/01/08 06:14:36;;;;;;;35.00;17.17;;;;;;;5.60;88.64;99835.38;5051491;28;20028;-53
2022/01/08 06:17:02;;;;;;;36.22;17.48;;;;;;;6.14;89.99;99839.19;5051425;28;20021;-49
2022/01/08 06:19:27;;;;;;;35.30;17.65;;;;;;;6.84;86.88;99835.63;5050038;28;20495;-51
2022/01/08 06:21:53;;;;;;;35.00;16.95;;;;;;;7.00;84.94;99834.69;5051179;28;20028;-51
2022/01/08 06:24:18;;;;;;;62.35;33.08;;;;;;;6.78;84.08;99841.66;5051323;28;20119;-51
2022/01/08 06:26:44;;;;;;;112.10;57.65;;;;;;;6.42;83.94;99835.09;5051020;28;20389;-52
2022/01/08 06:29:09;;;;;;;37.05;17.92;;;;;;;6.04;84.34;99836.75;5050611;28;20017;-51
2022/01/08 06:31:35;;;;;;;34.63;16.98;;;;;;;5.82;86.40;99840.94;5051014;28;20037;-50
2022/01/08 06:34:00;;;;;;;33.85;17.60;;;;;;;5.84;86.51;99838.94;5050704;28;20024;-51
2022/01/08 06:36:26;;;;;;;33.97;17.23;;;;;;;5.72;86.89;99840.31;5050326;28;20025;-52
2022/01/08 06:38:51;;;;;;;32.75;16.77;;;;;;;5.75;86.95;99839.94;5051102;28;20029;-52
2022/01/08 06:41:17;;;;;;;37.88;18.38;;;;;;;6.48;87.34;99840.69;5050744;28;20013;-51
2022/01/08 06:43:42;;;;;;;32.05;16.50;;;;;;;6.38;84.82;99838.25;5051429;28;20119;-53
2022/01/08 06:46:08;;;;;;;33.70;17.23;;;;;;;6.15;85.73;99841.66;5050850;28;20032;-51
2022/01/08 06:48:33;;;;;;;31.63;17.20;;;;;;;5.79;86.81;99831.53;5051165;28;20029;-52
2022/01/08 06:50:59;;;;;;;37.85;16.80;;;;;;;5.77;86.59;99837.97;5050899;28;20025;-53
2022/01/08 06:53:24;;;;;;;33.85;17.10;;;;;;;5.73;86.63;99832.22;5051359;28;20020;-52
2022/01/08 06:55:50;;;;;;;33.13;17.15;;;;;;;5.78;86.93;99837.78;5051021;28;20024;-53
2022/01/08 06:58:16;;;;;;;31.25;16.38;;;;;;;5.82;87.27;99841.75;5050454;28;20037;-53
2022/01/08 07:00:41;;;;;;;33.58;15.68;;;;;;;5.78;86.43;99832.50;5049850;28;20079;-52
2022/01/08 07:03:10;;;;;;;33.83;16.63;;;;;;;6.35;86.22;99831.47;5049991;28;20032;-51
2022/01/08 07:05:36;;;;;;;33.42;16.65;;;;;;;6.59;84.19;99827.06;5047107;28;20029;-53
2022/01/08 07:08:02;;;;;;;31.13;15.30;;;;;;;6.11;84.26;99829.81;5049371;28;20029;-52
2022/01/08 07:10:27;;;;;;;32.40;15.93;;;;;;;5.58;85.87;99826.81;5049622;28;20027;-51
2022/01/08 07:12:53;;;;;;;31.25;15.30;;;;;;;5.44;87.69;99827.50;5049589;28;20029;-52
2022/01/08 07:15:18;;;;;;;33.33;14.93;;;;;;;5.51;87.89;99823.19;5049598;28;20029;-53
2022/01/08 07:17:44;;;;;;;77.22;35.50;;;;;;;5.51;87.90;99832.94;5049894;28;20037;-52
2022/01/08 07:20:10;;;;;;;54.40;23.48;;;;;;;5.48;88.25;99831.44;5049983;28;20099;-52
2022/01/08 07:22:35;;;;;;;34.00;16.38;;;;;;;5.49;88.25;99826.00;5047300;28;20052;-51
2022/01/08 07:25:03;;;;;;;30.85;15.10;;;;;;;5.47;88.46;99833.25;5048348;28;20028;-51
2022/01/08 07:27:30;;;;;;;33.08;15.70;;;;;;;5.53;89.75;99825.66;5049796;28;20064;-51
2022/01/08 07:29:55;;;;;;;35.13;16.98;;;;;;;6.39;86.78;99824.03;5047127;28;20033;-52
2022/01/08 07:32:21;;;;;;;32.13;15.77;;;;;;;6.03;87.07;99827.19;5049596;28;20052;-53
2022/01/08 07:34:46;;;;;;;29.92;15.00;;;;;;;5.87;87.39;99823.56;5049753;28;20024;-51
2022/01/08 07:37:12;;;;;;;31.58;16.92;;;;;;;5.80;87.56;99827.06;5049420;28;20021;-51
2022/01/08 07:39:37;;;;;;;29.98;15.65;;;;;;;5.72;87.89;99820.00;5049260;28;20021;-53
2022/01/08 07:42:03;;;;;;;31.35;15.20;;;;;;;5.52;88.44;99816.94;5047799;28;20021;-52
2022/01/08 07:44:28;;;;;;;31.63;14.75;;;;;;;5.50;88.22;99821.53;5049803;28;20392;-50
2022/01/08 07:46:56;;;;;;;28.05;14.50;;;;;;;5.48;89.08;99819.09;5049651;28;20056;-51
2022/01/08 07:49:21;;;;;;;116.13;54.10;;;;;;;5.50;89.05;99826.81;5051597;28;20052;-50
2022/01/08 07:51:48;;;;;;;51.70;23.98;;;;;;;6.39;87.38;99824.84;5035913;28;20024;-52
2022/01/08 07:54:14;;;;;;;31.88;15.50;;;;;;;6.39;86.35;99829.31;5053471;28;20052;-53
2022/01/08 07:56:40;;;;;;;27.02;14.50;;;;;;;6.09;86.74;99821.19;5053449;28;20453;-52
2022/01/08 07:59:05;;;;;;;29.85;15.00;;;;;;;5.86;87.66;99821.94;5053547;28;20033;-53
2022/01/08 08:01:31;;;;;;;25.17;13.75;;;;;;;5.94;86.31;99828.16;5053509;28;20032;-50
2022/01/08 08:03:56;;;;;;;25.70;14.63;;;;;;;5.80;87.23;99824.44;5052932;28;20037;-52
2022/01/08 08:06:22;;;;;;;26.92;14.75;;;;;;;5.71;88.29;99815.69;5053362;28;20110;-53
2022/01/08 08:08:47;;;;;;;31.67;17.23;;;;;;;5.75;88.37;99813.53;5051202;28;20039;-53
2022/01/08 08:11:13;;;;;;;36.95;18.63;;;;;;;6.81;85.99;99809.53;5048730;28;20032;-53
2022/01/08 08:13:38;;;;;;;35.63;18.38;;;;;;;6.56;85.55;99819.47;5052866;28;20029;-52
2022/01/08 08:16:04;;;;;;;34.78;18.15;;;;;;;6.31;86.29;99819.63;5053347;28;20504;-54
2022/01/08 08:18:30;;;;;;;32.17;17.25;;;;;;;6.27;87.46;99815.66;5053214;28;20067;-53
2022/01/08 08:20:55;;;;;;;30.33;16.35;;;;;;;6.12;87.84;99814.75;5052651;28;20044;-52
2022/01/08 08:23:21;;;;;;;31.33;17.77;;;;;;;6.14;87.96;99818.88;5053035;28;20040;-50
2022/01/08 08:25:46;;;;;;;34.22;17.38;;;;;;;6.13;87.38;99825.16;5050217;28;20026;-51
2022/01/08 08:28:11;;;;;;;31.45;16.55;;;;;;;5.88;87.75;99811.19;5049207;28;20017;-51
2022/01/08 08:30:37;;;;;;;33.63;18.25;;;;;;;6.00;89.82;99811.69;5052843;28;20029;-53
2022/01/08 08:33:03;;;;;;;43.72;21.52;;;;;;;7.23;92.11;99805.53;5051960;28;20035;-54
2022/01/08 08:35:28;;;;;;;33.30;17.38;;;;;;;6.98;87.87;99805.75;5051225;28;20385;-54
2022/01/08 08:37:54;;;;;;;31.73;17.55;;;;;;;7.12;85.66;99808.59;5051722;28;20020;-53
2022/01/08 08:40:19;;;;;;;33.30;17.73;;;;;;;7.55;84.64;99806.22;5050913;28;20029;-54
2022/01/08 08:42:45;;;;;;;30.25;16.88;;;;;;;7.61;82.94;99803.63;5051686;28;20198;-54
2022/01/08 08:45:10;;;;;;;32.13;19.02;;;;;;;7.24;81.97;99800.06;5052074;28;20017;-53
2022/01/08 08:47:36;;;;;;;30.85;16.35;;;;;;;6.93;82.31;99796.69;5051079;28;20025;-54
2022/01/08 08:50:02;;;;;;;27.98;15.75;;;;;;;6.65;84.97;99789.31;5052012;28;20037;-54
2022/01/08 08:52:27;;;;;;;29.65;16.10;;;;;;;7.42;83.48;99783.00;5052322;28;20028;-55
2022/01/08 08:54:52;;;;;;;27.52;14.73;;;;;;;7.27;82.70;99790.91;5051900;28;20465;-54
2022/01/08 08:57:18;;;;;;;25.25;14.63;;;;;;;6.77;84.58;99774.66;5051559;28;20388;-53
2022/01/08 08:59:44;;;;;;;26.60;14.35;;;;;;;6.49;84.55;99777.03;5050480;28;20112;-54
2022/01/08 09:02:09;;;;;;;26.77;14.43;;;;;;;6.39;84.57;99779.09;5052999;28;20029;-54
2022/01/08 09:04:36;;;;;;;30.60;17.40;;;;;;;6.54;84.60;99779.16;5053539;28;20473;-53
2022/01/08 09:07:03;;;;;;;35.22;18.25;;;;;;;6.39;86.65;99771.97;5052420;28;20063;-53
2022/01/08 09:09:28;;;;;;;35.15;18.13;;;;;;;7.27;84.40;99772.41;5052863;28;20036;-53
2022/01/08 09:11:54;;;;;;;33.45;17.45;;;;;;;7.08;84.62;99762.34;5052747;28;20025;-52
2022/01/08 09:14:19;;;;;;;24.98;13.27;;;;;;;6.86;82.88;99756.91;5052675;28;20558;-54
2022/01/08 09:16:47;;;;;;;29.17;15.85;;;;;;;6.61;83.77;99751.84;5052436;28;20425;-51
2022/01/08 09:19:13;;;;;;;30.45;15.98;;;;;;;6.43;85.63;99744.19;5052322;28;20036;-53
2022/01/08 09:21:38;;;;;;;31.25;16.73;;;;;;;6.41;86.02;99745.38;5052273;28;20098;-51
2022/01/08 09:24:04;;;;;;;35.53;18.85;;;;;;;6.37;86.30;99739.59;5052392;28;20036;-52
2022/01/08 09:26:29;;;;;;;43.40;22.15;;;;;;;6.56;86.36;99738.31;5052167;28;20094;-50
2022/01/08 09:28:55;;;;;;;43.78;20.15;;;;;;;6.45;85.61;99731.63;5052152;28;20105;-52
2022/01/08 09:31:20;;;;;;;37.03;19.08;;;;;;;6.26;86.43;99722.34;5052258;28;20119;-52
2022/01/08 09:33:46;;;;;;;42.00;21.95;;;;;;;6.83;87.17;99722.88;5052204;28;20094;-51
2022/01/08 09:36:11;;;;;;;36.45;19.20;;;;;;;7.03;85.49;99718.72;5051988;28;20442;-53
2022/01/08 09:38:37;;;;;;;30.63;16.15;;;;;;;6.81;85.41;99709.81;5051709;28;20040;-54
2022/01/08 09:41:02;;;;;;;51.58;26.55;;;;;;;6.77;84.21;99707.72;5051713;28;20020;-54
2022/01/08 09:43:28;;;;;;;30.42;16.55;;;;;;;6.63;85.29;99701.41;5051923;28;20029;-52
2022/01/08 09:45:53;;;;;;;26.38;13.70;;;;;;;6.58;85.13;99694.00;5050757;28;20025;-53
2022/01/08 09:48:19;;;;;;;28.73;16.02;;;;;;;7.17;85.63;99693.25;5052079;28;20037;-51
2022/01/08 09:50:44;;;;;;;21.00;11.75;;;;;;;7.31;83.68;99693.44;5051927;28;20413;-50
2022/01/08 09:53:09;;;;;;;21.70;11.55;;;;;;;7.05;84.33;99687.59;5051737;28;20025;-53
2022/01/08 09:55:35;;;;;;;20.77;12.23;;;;;;;6.89;84.39;99682.47;5051266;28;20520;-51
2022/01/08 09:58:01;;;;;;;17.85;10.52;;;;;;;6.74;83.52;99676.34;5049995;28;20021;-51
2022/01/08 10:00:26;;;;;;;21.23;11.38;;;;;;;6.65;85.72;99673.78;5051497;28;20036;-50
2022/01/08 10:02:52;;;;;;;19.10;11.10;;;;;;;6.78;85.69;99667.88;5049360;28;20460;-52
2022/01/08 10:05:17;;;;;;;18.80;10.65;;;;;;;6.75;85.20;99662.94;5050097;28;20104;-50
2022/01/08 10:07:56;;;;;;;19.42;10.52;;;;;;;6.89;84.12;99657.84;5046114;28;20037;-49
2022/01/08 10:10:21;;;;;;;17.30;9.80;;;;;;;7.13;84.68;99659.41;5049686;28;20082;-52
2022/01/08 10:12:52;;;;;;;17.65;9.88;;;;;;;8.00;81.96;99650.66;5050221;28;20024;-51
2022/01/08 10:18:14;;;;;;;11.73;6.72;;;;;;;7.38;83.23;99642.22;5048413;28;20516;-49
2022/01/08 10:20:40;;;;;;;13.27;8.05;;;;;;;7.15;83.71;99652.91;5032439;28;20029;-51
2022/01/08 10:23:14;;;;;;;11.85;7.43;;;;;;;7.02;83.98;99644.81;5050960;28;20056;-50
2022/01/08 10:25:41;;;;;;;14.57;8.18;;;;;;;7.16;83.35;99640.50;5050749;28;20029;-50
2022/01/08 10:28:06;;;;;;;14.68;7.78;;;;;;;7.06;83.92;99635.50;5049642;28;20036;-51
2022/01/08 10:30:32;;;;;;;12.45;7.78;;;;;;;7.03;83.91;99643.81;5047473;28;20033;-52
2022/01/08 10:32:58;;;;;;;13.02;8.07;;;;;;;7.62;82.50;99633.13;5048565;28;20029;-50
2022/01/08 10:35:49;;;;;;;13.93;8.40;;;;;;;7.88;80.99;99626.50;5050514;28;20032;-52
2022/01/08 10:38:15;;;;;;;14.25;7.47;;;;;;;7.46;82.84;99627.25;5048167;28;20538;-53
2022/01/08 10:40:40;;;;;;;12.00;7.25;;;;;;;7.30;82.68;99633.56;5049026;28;20036;-53
2022/01/08 10:43:32;;;;;;;11.95;6.90;;;;;;;7.09;84.25;99629.03;5047402;28;20104;-55
2022/01/08 10:46:10;;;;;;;12.30;7.82;;;;;;;7.09;86.13;99611.31;5048835;28;20040;-51
2022/01/08 10:48:36;;;;;;;16.83;9.13;;;;;;;7.94;84.42;99598.38;5048234;28;20040;-53
2022/01/08 10:51:22;;;;;;;12.13;7.00;;;;;;;7.67;83.64;99607.91;5048536;28;20032;-50
2022/01/08 10:53:50;;;;;;;13.05;8.07;;;;;;;7.36;83.29;99604.53;5050658;28;20119;-51
2022/01/08 10:56:36;;;;;;;15.00;8.60;;;;;;;7.64;82.04;99595.88;5050532;28;20028;-52
2022/01/08 10:59:11;;;;;;;14.55;7.32;;;;;;;7.24;83.23;99603.38;5050066;28;20021;-51
2022/01/08 11:01:40;;;;;;;11.65;6.93;;;;;;;7.01;85.05;99585.78;5050478;28;20037;-54
2022/01/08 11:04:07;;;;;;;11.60;7.30;;;;;;;7.20;83.99;99583.56;5050621;28;20036;-52
2022/01/08 11:06:33;;;;;;;13.10;7.78;;;;;;;8.08;81.01;99580.81;5050306;28;20679;-52
2022/01/08 11:09:00;;;;;;;11.35;7.38;;;;;;;7.71;81.51;99583.53;5050661;28;20025;-51
2022/01/08 11:11:29;;;;;;;13.50;8.00;;;;;;;7.24;82.17;99556.53;5050728;28;20104;-53
2022/01/08 11:13:55;;;;;;;14.65;8.25;;;;;;;7.39;83.24;99582.97;5050102;28;20111;-50
2022/01/08 11:16:21;;;;;;;12.80;7.93;;;;;;;6.98;84.11;99580.84;5032605;28;20025;-50
2022/01/08 11:18:46;;;;;;;14.45;8.35;;;;;;;6.81;85.39;99574.13;5039643;28;20098;-50
2022/01/08 11:21:11;;;;;;;16.13;8.80;;;;;;;6.89;84.88;99568.72;5061220;28;20032;-51
2022/01/08 11:23:37;;;;;;;16.10;8.73;;;;;;;7.04;85.52;99572.19;5030309;28;20044;-48
2022/01/08 11:26:03;;;;;;;16.70;8.77;;;;;;;7.36;85.16;99570.09;5057338;28;20025;-53
2022/01/08 11:28:35;;;;;;;16.05;8.95;;;;;;;7.20;83.61;99573.00;5052756;28;20500;-53
2022/01/08 11:31:01;;;;;;;15.02;7.85;;;;;;;7.20;83.04;99580.94;5059959;28;20158;-49
2022/01/08 11:33:31;;;;;;;14.52;8.68;;;;;;;7.04;84.64;99563.41;5063161;28;20082;-52
2022/01/08 11:35:56;;;;;;;16.50;9.50;;;;;;;6.88;86.57;99561.81;5067716;28;20028;-51
2022/01/08 11:38:23;;;;;;;15.50;8.98;;;;;;;7.29;84.96;99561.28;5057318;28;20039;-49
2022/01/08 11:40:49;;;;;;;14.48;9.18;;;;;;;7.57;83.38;99557.91;5068352;28;20025;-50
2022/01/08 11:43:17;;;;;;;15.38;8.18;;;;;;;7.13;84.82;99546.44;5054156;28;20029;-53
2022/01/08 11:45:47;;;;;;;14.45;8.90;;;;;;;7.10;84.52;99553.91;5053884;28;20056;-51
2022/01/08 11:48:13;;;;;;;17.17;9.23;;;;;;;6.83;86.22;99553.59;5053892;28;20021;-54